sensor_id;sensor_type;location;lat;lon;timestamp;temperature;humidity
67133;HTU21D;54052;53.542;49.408;2022-07-23T00:00:01;18.85;82.47
67133;HTU21D;54052;53.542;49.408;2022-07-23T00:02:27;18.74;83.04
67133;HTU21D;54052;53.542;49.408;2022-07-23T00:04:54;18.54;83.82
67133;HTU21D;54052;53.542;49.408;2022-07-23T00:07:20;18.40;84.16
67133;HTU21D;54052;53.542;49.408;2022-07-23T00:09:46;18.29;85.09
67133;HTU21D;54052;53.542;49.408;2022-07-23T00:12:12;18.27;87.12
67133;HTU21D;54052;53.542;49.408;2022-07-23T00:14:38;18.24;85.19
67133;HTU21D;54052;53.542;49.408;2022-07-23T00:17:04;18.18;85.35
67133;HTU21D;54052;53.542;49.408;2022-07-23T00:19:30;18.13;84.89
67133;HTU21D;54052;53.542;49.408;2022-07-23T00:21:56;18.13;85.86
67133;HTU21D;54052;53.542;49.408;2022-07-23T00:24:22;18.15;85.31
67133;HTU21D;54052;53.542;49.408;2022-07-23T00:26:48;18.22;84.61
67133;HTU21D;54052;53.542;49.408;2022-07-23T00:29:14;18.20;84.02
67133;HTU21D;54052;53.542;49.408;2022-07-23T00:31:40;18.23;84.46
67133;HTU21D;54052;53.542;49.408;2022-07-23T00:34:07;18.26;84.48
67133;HTU21D;54052;53.542;49.408;2022-07-23T00:36:33;18.24;83.41
67133;HTU21D;54052;53.542;49.408;2022-07-23T00:38:59;18.20;84.19
67133;HTU21D;54052;53.542;49.408;2022-07-23T00:41:25;18.18;85.49
67133;HTU21D;54052;53.542;49.408;2022-07-23T00:43:51;18.12;84.25
67133;HTU21D;54052;53.542;49.408;2022-07-23T00:46:21;18.03;84.22
67133;HTU21D;54052;53.542;49.408;2022-07-23T00:48:48;18.02;84.23
67133;HTU21D;54052;53.542;49.408;2022-07-23T00:51:15;17.99;84.51
67133;HTU21D;54052;53.542;49.408;2022-07-23T00:53:42;17.93;85.00
67133;HTU21D;54052;53.542;49.408;2022-07-23T00:56:10;17.88;85.17
67133;HTU21D;54052;53.542;49.408;2022-07-23T00:58:36;17.88;85.15
67133;HTU21D;54052;53.542;49.408;2022-07-23T01:01:04;17.87;85.30
67133;HTU21D;54052;53.542;49.408;2022-07-23T01:03:30;17.92;84.05
67133;HTU21D;54052;53.542;49.408;2022-07-23T01:05:56;17.95;85.57
67133;HTU21D;54052;53.542;49.408;2022-07-23T01:08:23;17.93;84.19
67133;HTU21D;54052;53.542;49.408;2022-07-23T01:10:50;17.87;84.75
67133;HTU21D;54052;53.542;49.408;2022-07-23T01:13:17;17.83;84.85
67133;HTU21D;54052;53.542;49.408;2022-07-23T01:15:43;17.89;84.62
67133;HTU21D;54052;53.542;49.408;2022-07-23T01:18:09;17.95;85.30
67133;HTU21D;54052;53.542;49.408;2022-07-23T01:20:36;17.97;83.94
67133;HTU21D;54052;53.542;49.408;2022-07-23T01:23:02;18.05;83.18
67133;HTU21D;54052;53.542;49.408;2022-07-23T01:25:31;18.07;83.02
67133;HTU21D;54052;53.542;49.408;2022-07-23T01:27:58;18.10;82.17
67133;HTU21D;54052;53.542;49.408;2022-07-23T01:30:24;18.18;81.46
67133;HTU21D;54052;53.542;49.408;2022-07-23T01:32:50;18.28;80.82
67133;HTU21D;54052;53.542;49.408;2022-07-23T01:35:16;18.39;80.43
67133;HTU21D;54052;53.542;49.408;2022-07-23T01:37:43;18.43;82.33
67133;HTU21D;54052;53.542;49.408;2022-07-23T01:40:09;18.51;80.72
67133;HTU21D;54052;53.542;49.408;2022-07-23T01:42:35;18.58;81.09
67133;HTU21D;54052;53.542;49.408;2022-07-23T01:45:03;18.66;83.31
67133;HTU21D;54052;53.542;49.408;2022-07-23T01:47:29;18.74;80.59
67133;HTU21D;54052;53.542;49.408;2022-07-23T01:49:55;18.74;81.84
67133;HTU21D;54052;53.542;49.408;2022-07-23T01:52:21;18.81;82.96
67133;HTU21D;54052;53.542;49.408;2022-07-23T01:54:47;18.88;81.42
67133;HTU21D;54052;53.542;49.408;2022-07-23T01:57:13;18.96;80.43
67133;HTU21D;54052;53.542;49.408;2022-07-23T01:59:39;19.07;81.94
67133;HTU21D;54052;53.542;49.408;2022-07-23T02:02:05;19.17;79.57
67133;HTU21D;54052;53.542;49.408;2022-07-23T02:04:32;19.20;78.82
67133;HTU21D;54052;53.542;49.408;2022-07-23T02:07:01;19.24;80.11
67133;HTU21D;54052;53.542;49.408;2022-07-23T02:09:27;19.30;78.32
67133;HTU21D;54052;53.542;49.408;2022-07-23T02:11:53;19.46;79.47
67133;HTU21D;54052;53.542;49.408;2022-07-23T02:14:19;19.60;78.66
67133;HTU21D;54052;53.542;49.408;2022-07-23T02:16:45;19.79;78.27
67133;HTU21D;54052;53.542;49.408;2022-07-23T02:19:16;20.02;76.50
67133;HTU21D;54052;53.542;49.408;2022-07-23T02:21:43;20.13;76.03
67133;HTU21D;54052;53.542;49.408;2022-07-23T02:24:09;20.06;76.01
67133;HTU21D;54052;53.542;49.408;2022-07-23T02:26:35;19.99;75.83
67133;HTU21D;54052;53.542;49.408;2022-07-23T02:29:02;20.10;77.47
67133;HTU21D;54052;53.542;49.408;2022-07-23T02:31:29;20.22;74.76
67133;HTU21D;54052;53.542;49.408;2022-07-23T02:33:56;20.19;73.25
67133;HTU21D;54052;53.542;49.408;2022-07-23T02:36:22;20.30;73.34
67133;HTU21D;54052;53.542;49.408;2022-07-23T02:38:49;20.34;73.98
67133;HTU21D;54052;53.542;49.408;2022-07-23T02:41:15;20.44;74.61
67133;HTU21D;54052;53.542;49.408;2022-07-23T02:43:41;20.34;72.43
67133;HTU21D;54052;53.542;49.408;2022-07-23T02:46:07;20.24;73.22
67133;HTU21D;54052;53.542;49.408;2022-07-23T02:48:33;20.16;75.31
67133;HTU21D;54052;53.542;49.408;2022-07-23T02:50:59;20.17;74.62
67133;HTU21D;54052;53.542;49.408;2022-07-23T02:53:25;20.21;75.21
67133;HTU21D;54052;53.542;49.408;2022-07-23T02:55:51;20.28;74.15
67133;HTU21D;54052;53.542;49.408;2022-07-23T02:58:18;20.37;74.18
67133;HTU21D;54052;53.542;49.408;2022-07-23T03:00:44;20.41;74.81
67133;HTU21D;54052;53.542;49.408;2022-07-23T03:03:10;20.43;75.17
67133;HTU21D;54052;53.542;49.408;2022-07-23T03:05:36;20.49;74.99
67133;HTU21D;54052;53.542;49.408;2022-07-23T03:08:02;20.59;75.62
67133;HTU21D;54052;53.542;49.408;2022-07-23T03:10:28;20.69;75.12
67133;HTU21D;54052;53.542;49.408;2022-07-23T03:12:54;20.86;74.96
67133;HTU21D;54052;53.542;49.408;2022-07-23T03:15:20;21.03;73.96
67133;HTU21D;54052;53.542;49.408;2022-07-23T03:17:46;21.30;72.17
67133;HTU21D;54052;53.542;49.408;2022-07-23T03:20:12;21.53;72.16
67133;HTU21D;54052;53.542;49.408;2022-07-23T03:22:38;22.04;70.65
67133;HTU21D;54052;53.542;49.408;2022-07-23T03:25:05;23.99;63.69
67133;HTU21D;54052;53.542;49.408;2022-07-23T03:27:31;24.19;63.32
67133;HTU21D;54052;53.542;49.408;2022-07-23T03:29:59;23.83;66.75
67133;HTU21D;54052;53.542;49.408;2022-07-23T03:32:25;23.29;66.22
67133;HTU21D;54052;53.542;49.408;2022-07-23T03:34:52;22.79;69.51
67133;HTU21D;54052;53.542;49.408;2022-07-23T03:37:18;22.39;70.64
67133;HTU21D;54052;53.542;49.408;2022-07-23T03:39:45;22.08;71.90
67133;HTU21D;54052;53.542;49.408;2022-07-23T03:42:11;21.84;73.67
67133;HTU21D;54052;53.542;49.408;2022-07-23T03:44:37;21.68;74.42
67133;HTU21D;54052;53.542;49.408;2022-07-23T03:47:05;21.54;74.69
67133;HTU21D;54052;53.542;49.408;2022-07-23T03:49:31;21.35;75.66
67133;HTU21D;54052;53.542;49.408;2022-07-23T03:51:59;21.36;75.09
67133;HTU21D;54052;53.542;49.408;2022-07-23T03:54:25;21.33;75.83
67133;HTU21D;54052;53.542;49.408;2022-07-23T03:56:51;21.31;74.86
67133;HTU21D;54052;53.542;49.408;2022-07-23T03:59:17;21.35;73.96
67133;HTU21D;54052;53.542;49.408;2022-07-23T04:01:44;21.32;74.45
67133;HTU21D;54052;53.542;49.408;2022-07-23T04:04:10;21.22;74.21
67133;HTU21D;54052;53.542;49.408;2022-07-23T04:06:36;21.13;75.05
67133;HTU21D;54052;53.542;49.408;2022-07-23T04:09:02;21.16;73.99
67133;HTU21D;54052;53.542;49.408;2022-07-23T04:11:28;21.17;74.51
67133;HTU21D;54052;53.542;49.408;2022-07-23T04:13:54;21.23;74.03
67133;HTU21D;54052;53.542;49.408;2022-07-23T04:16:20;21.35;74.01
67133;HTU21D;54052;53.542;49.408;2022-07-23T04:18:47;21.39;75.13
67133;HTU21D;54052;53.542;49.408;2022-07-23T04:21:13;21.51;73.51
67133;HTU21D;54052;53.542;49.408;2022-07-23T04:23:39;21.50;73.08
67133;HTU21D;54052;53.542;49.408;2022-07-23T04:26:05;21.49;75.01
67133;HTU21D;54052;53.542;49.408;2022-07-23T04:28:31;21.60;76.37
67133;HTU21D;54052;53.542;49.408;2022-07-23T04:30:57;21.76;73.12
67133;HTU21D;54052;53.542;49.408;2022-07-23T04:33:24;21.83;69.97
67133;HTU21D;54052;53.542;49.408;2022-07-23T04:35:50;21.99;70.53
67133;HTU21D;54052;53.542;49.408;2022-07-23T04:38:16;22.10;70.86
67133;HTU21D;54052;53.542;49.408;2022-07-23T04:40:42;22.26;69.22
67133;HTU21D;54052;53.542;49.408;2022-07-23T04:43:08;22.44;68.02
67133;HTU21D;54052;53.542;49.408;2022-07-23T04:45:34;22.64;67.11
67133;HTU21D;54052;53.542;49.408;2022-07-23T04:48:00;22.83;66.62
67133;HTU21D;54052;53.542;49.408;2022-07-23T04:50:27;22.99;67.32
67133;HTU21D;54052;53.542;49.408;2022-07-23T04:52:53;23.20;65.73
67133;HTU21D;54052;53.542;49.408;2022-07-23T04:55:19;23.44;63.38
67133;HTU21D;54052;53.542;49.408;2022-07-23T04:57:45;23.73;64.87
67133;HTU21D;54052;53.542;49.408;2022-07-23T05:00:12;24.93;58.96
67133;HTU21D;54052;53.542;49.408;2022-07-23T05:02:38;25.48;56.48
67133;HTU21D;54052;53.542;49.408;2022-07-23T05:05:04;25.75;55.45
67133;HTU21D;54052;53.542;49.408;2022-07-23T05:07:31;27.47;53.39
67133;HTU21D;54052;53.542;49.408;2022-07-23T05:09:57;31.06;42.07
67133;HTU21D;54052;53.542;49.408;2022-07-23T05:12:23;33.21;38.45
67133;HTU21D;54052;53.542;49.408;2022-07-23T05:14:49;35.35;31.41
67133;HTU21D;54052;53.542;49.408;2022-07-23T05:17:15;36.67;30.94
67133;HTU21D;54052;53.542;49.408;2022-07-23T05:19:41;37.95;28.59
67133;HTU21D;54052;53.542;49.408;2022-07-23T05:22:07;38.90;25.17
67133;HTU21D;54052;53.542;49.408;2022-07-23T05:24:33;39.35;24.11
67133;HTU21D;54052;53.542;49.408;2022-07-23T05:26:59;39.99;23.93
67133;HTU21D;54052;53.542;49.408;2022-07-23T05:29:25;40.52;22.50
67133;HTU21D;54052;53.542;49.408;2022-07-23T05:31:51;36.74;27.61
67133;HTU21D;54052;53.542;49.408;2022-07-23T05:34:17;34.04;32.59
67133;HTU21D;54052;53.542;49.408;2022-07-23T05:36:43;32.78;35.06
67133;HTU21D;54052;53.542;49.408;2022-07-23T05:39:09;31.31;39.94
67133;HTU21D;54052;53.542;49.408;2022-07-23T05:41:35;30.16;41.83
67133;HTU21D;54052;53.542;49.408;2022-07-23T05:44:01;30.27;42.83
67133;HTU21D;54052;53.542;49.408;2022-07-23T05:46:27;30.46;41.52
67133;HTU21D;54052;53.542;49.408;2022-07-23T05:48:53;31.37;39.35
67133;HTU21D;54052;53.542;49.408;2022-07-23T05:51:24;31.54;39.78
67133;HTU21D;54052;53.542;49.408;2022-07-23T05:53:51;31.30;38.79
67133;HTU21D;54052;53.542;49.408;2022-07-23T05:56:17;30.78;41.10
67133;HTU21D;54052;53.542;49.408;2022-07-23T05:58:44;30.42;41.39
67133;HTU21D;54052;53.542;49.408;2022-07-23T06:01:10;30.27;41.16
67133;HTU21D;54052;53.542;49.408;2022-07-23T06:03:38;30.22;42.73
67133;HTU21D;54052;53.542;49.408;2022-07-23T06:06:05;30.12;42.03
67133;HTU21D;54052;53.542;49.408;2022-07-23T06:08:31;30.13;42.13
67133;HTU21D;54052;53.542;49.408;2022-07-23T06:10:57;30.00;42.74
67133;HTU21D;54052;53.542;49.408;2022-07-23T06:13:23;29.75;42.23
67133;HTU21D;54052;53.542;49.408;2022-07-23T06:15:49;29.86;42.82
67133;HTU21D;54052;53.542;49.408;2022-07-23T06:18:15;29.89;42.63
67133;HTU21D;54052;53.542;49.408;2022-07-23T06:20:41;29.96;42.39
67133;HTU21D;54052;53.542;49.408;2022-07-23T06:23:07;29.62;40.18
67133;HTU21D;54052;53.542;49.408;2022-07-23T06:25:33;29.33;41.47
67133;HTU21D;54052;53.542;49.408;2022-07-23T06:27:59;29.11;43.55
67133;HTU21D;54052;53.542;49.408;2022-07-23T06:30:26;29.20;41.28
67133;HTU21D;54052;53.542;49.408;2022-07-23T06:32:52;28.93;41.22
67133;HTU21D;54052;53.542;49.408;2022-07-23T06:35:29;28.97;42.68
67133;HTU21D;54052;53.542;49.408;2022-07-23T06:37:55;29.14;43.41
67133;HTU21D;54052;53.542;49.408;2022-07-23T06:40:22;29.31;42.82
67133;HTU21D;54052;53.542;49.408;2022-07-23T06:42:48;29.28;38.85
67133;HTU21D;54052;53.542;49.408;2022-07-23T06:45:14;29.19;40.84
67133;HTU21D;54052;53.542;49.408;2022-07-23T06:47:40;29.15;41.68
67133;HTU21D;54052;53.542;49.408;2022-07-23T06:50:07;29.29;40.46
67133;HTU21D;54052;53.542;49.408;2022-07-23T06:52:33;29.06;40.63
67133;HTU21D;54052;53.542;49.408;2022-07-23T06:54:59;28.88;42.09
67133;HTU21D;54052;53.542;49.408;2022-07-23T06:57:26;29.13;40.92
67133;HTU21D;54052;53.542;49.408;2022-07-23T06:59:53;28.95;39.69
67133;HTU21D;54052;53.542;49.408;2022-07-23T07:02:19;28.83;40.64
67133;HTU21D;54052;53.542;49.408;2022-07-23T07:04:45;28.91;41.41
67133;HTU21D;54052;53.542;49.408;2022-07-23T07:07:11;28.75;41.97
67133;HTU21D;54052;53.542;49.408;2022-07-23T07:09:38;28.91;40.86
67133;HTU21D;54052;53.542;49.408;2022-07-23T07:12:04;29.20;40.81
67133;HTU21D;54052;53.542;49.408;2022-07-23T07:14:30;29.26;42.42
67133;HTU21D;54052;53.542;49.408;2022-07-23T07:16:56;29.22;40.45
67133;HTU21D;54052;53.542;49.408;2022-07-23T07:19:22;29.23;41.03
67133;HTU21D;54052;53.542;49.408;2022-07-23T07:21:49;29.34;39.49
67133;HTU21D;54052;53.542;49.408;2022-07-23T07:24:15;29.35;40.06
67133;HTU21D;54052;53.542;49.408;2022-07-23T07:26:41;29.42;40.49
67133;HTU21D;54052;53.542;49.408;2022-07-23T07:29:07;29.49;41.01
67133;HTU21D;54052;53.542;49.408;2022-07-23T07:31:33;29.39;40.13
67133;HTU21D;54052;53.542;49.408;2022-07-23T07:33:59;29.07;41.11
67133;HTU21D;54052;53.542;49.408;2022-07-23T07:36:25;28.99;40.94
67133;HTU21D;54052;53.542;49.408;2022-07-23T07:38:51;29.09;41.39
67133;HTU21D;54052;53.542;49.408;2022-07-23T07:41:17;28.99;44.78
67133;HTU21D;54052;53.542;49.408;2022-07-23T07:43:48;28.87;43.49
67133;HTU21D;54052;53.542;49.408;2022-07-23T07:46:14;28.76;41.77
67133;HTU21D;54052;53.542;49.408;2022-07-23T07:48:40;28.97;39.46
67133;HTU21D;54052;53.542;49.408;2022-07-23T07:51:06;29.28;39.36
67133;HTU21D;54052;53.542;49.408;2022-07-23T07:53:33;29.53;38.63
67133;HTU21D;54052;53.542;49.408;2022-07-23T07:55:59;29.68;38.75
67133;HTU21D;54052;53.542;49.408;2022-07-23T07:58:25;29.65;39.97
67133;HTU21D;54052;53.542;49.408;2022-07-23T08:00:51;29.73;36.71
67133;HTU21D;54052;53.542;49.408;2022-07-23T08:03:17;29.70;37.24
67133;HTU21D;54052;53.542;49.408;2022-07-23T08:05:43;29.87;37.30
67133;HTU21D;54052;53.542;49.408;2022-07-23T08:08:09;29.98;35.34
67133;HTU21D;54052;53.542;49.408;2022-07-23T08:10:40;30.12;34.50
67133;HTU21D;54052;53.542;49.408;2022-07-23T08:13:07;30.21;35.21
67133;HTU21D;54052;53.542;49.408;2022-07-23T08:15:33;30.21;36.11
67133;HTU21D;54052;53.542;49.408;2022-07-23T08:17:59;30.20;36.22
67133;HTU21D;54052;53.542;49.408;2022-07-23T08:20:26;30.04;38.07
67133;HTU21D;54052;53.542;49.408;2022-07-23T08:22:58;29.98;37.85
67133;HTU21D;54052;53.542;49.408;2022-07-23T08:25:28;29.86;38.77
67133;HTU21D;54052;53.542;49.408;2022-07-23T08:27:55;29.86;38.11
67133;HTU21D;54052;53.542;49.408;2022-07-23T08:30:21;29.98;37.44
67133;HTU21D;54052;53.542;49.408;2022-07-23T08:32:58;30.16;34.15
67133;HTU21D;54052;53.542;49.408;2022-07-23T08:35:33;30.28;34.42
67133;HTU21D;54052;53.542;49.408;2022-07-23T08:38:00;30.23;34.44
67133;HTU21D;54052;53.542;49.408;2022-07-23T08:40:28;30.08;37.69
67133;HTU21D;54052;53.542;49.408;2022-07-23T08:42:54;29.79;38.94
67133;HTU21D;54052;53.542;49.408;2022-07-23T08:45:22;29.30;40.84
67133;HTU21D;54052;53.542;49.408;2022-07-23T08:47:57;29.03;41.44
67133;HTU21D;54052;53.542;49.408;2022-07-23T08:50:27;28.53;41.27
67133;HTU21D;54052;53.542;49.408;2022-07-23T08:52:53;28.19;43.40
67133;HTU21D;54052;53.542;49.408;2022-07-23T08:55:21;27.94;47.31
67133;HTU21D;54052;53.542;49.408;2022-07-23T08:57:49;26.96;52.13
67133;HTU21D;54052;53.542;49.408;2022-07-23T09:00:16;26.09;51.66
67133;HTU21D;54052;53.542;49.408;2022-07-23T09:02:44;25.44;55.12
67133;HTU21D;54052;53.542;49.408;2022-07-23T09:05:12;24.89;53.40
67133;HTU21D;54052;53.542;49.408;2022-07-23T09:15:51;23.45;56.52
67133;HTU21D;54052;53.542;49.408;2022-07-23T09:18:17;23.86;57.28
67133;HTU21D;54052;53.542;49.408;2022-07-23T09:20:44;24.30;51.69
67133;HTU21D;54052;53.542;49.408;2022-07-23T09:23:10;24.61;51.90
67133;HTU21D;54052;53.542;49.408;2022-07-23T09:25:36;24.89;52.55
67133;HTU21D;54052;53.542;49.408;2022-07-23T09:28:02;25.58;49.07
67133;HTU21D;54052;53.542;49.408;2022-07-23T09:30:32;25.90;48.04
67133;HTU21D;54052;53.542;49.408;2022-07-23T09:33:04;26.05;55.26
67133;HTU21D;54052;53.542;49.408;2022-07-23T09:35:50;26.09;50.90
67133;HTU21D;54052;53.542;49.408;2022-07-23T09:38:17;26.36;47.44
67133;HTU21D;54052;53.542;49.408;2022-07-23T09:40:45;26.55;44.45
67133;HTU21D;54052;53.542;49.408;2022-07-23T09:43:25;26.40;46.25
67133;HTU21D;54052;53.542;49.408;2022-07-23T09:45:52;26.20;44.87
67133;HTU21D;54052;53.542;49.408;2022-07-23T09:48:19;26.06;47.28
67133;HTU21D;54052;53.542;49.408;2022-07-23T09:50:45;26.01;48.67
67133;HTU21D;54052;53.542;49.408;2022-07-23T09:53:31;25.78;49.03
67133;HTU21D;54052;53.542;49.408;2022-07-23T09:55:58;25.52;50.02
67133;HTU21D;54052;53.542;49.408;2022-07-23T09:58:25;25.35;50.73
67133;HTU21D;54052;53.542;49.408;2022-07-23T10:00:55;25.34;51.82
67133;HTU21D;54052;53.542;49.408;2022-07-23T10:03:23;25.23;55.29
67133;HTU21D;54052;53.542;49.408;2022-07-23T10:05:50;25.07;55.21
67133;HTU21D;54052;53.542;49.408;2022-07-23T10:08:19;25.02;57.39
67133;HTU21D;54052;53.542;49.408;2022-07-23T10:10:49;24.64;58.15
67133;HTU21D;54052;53.542;49.408;2022-07-23T10:13:16;24.54;59.41
67133;HTU21D;54052;53.542;49.408;2022-07-23T10:16:01;24.43;61.36
67133;HTU21D;54052;53.542;49.408;2022-07-23T10:18:27;24.18;66.67
67133;HTU21D;54052;53.542;49.408;2022-07-23T10:20:55;23.94;62.92
67133;HTU21D;54052;53.542;49.408;2022-07-23T10:23:35;23.74;64.97
67133;HTU21D;54052;53.542;49.408;2022-07-23T10:26:08;23.47;68.79
67133;HTU21D;54052;53.542;49.408;2022-07-23T10:32:00;22.40;74.46
67133;HTU21D;54052;53.542;49.408;2022-07-23T10:34:36;21.83;76.97
67133;HTU21D;54052;53.542;49.408;2022-07-23T10:37:32;21.60;76.16
67133;HTU21D;54052;53.542;49.408;2022-07-23T10:40:14;21.44;76.46
67133;HTU21D;54052;53.542;49.408;2022-07-23T10:42:44;21.29;75.29
67133;HTU21D;54052;53.542;49.408;2022-07-23T10:45:34;21.28;77.90
67133;HTU21D;54052;53.542;49.408;2022-07-23T10:48:21;21.29;76.76
67133;HTU21D;54052;53.542;49.408;2022-07-23T10:59:24;20.84;68.69
67133;HTU21D;54052;53.542;49.408;2022-07-23T11:01:50;20.77;71.80
67133;HTU21D;54052;53.542;49.408;2022-07-23T11:05:00;20.75;71.08
67133;HTU21D;54052;53.542;49.408;2022-07-23T11:07:27;20.85;73.62
67133;HTU21D;54052;53.542;49.408;2022-07-23T11:09:53;20.94;73.41
67133;HTU21D;54052;53.542;49.408;2022-07-23T11:14:58;21.25;74.76
67133;HTU21D;54052;53.542;49.408;2022-07-23T11:17:25;21.45;74.64
67133;HTU21D;54052;53.542;49.408;2022-07-23T11:22:39;21.64;78.00
67133;HTU21D;54052;53.542;49.408;2022-07-23T11:25:06;21.73;73.76
67133;HTU21D;54052;53.542;49.408;2022-07-23T11:27:40;21.81;73.02
67133;HTU21D;54052;53.542;49.408;2022-07-23T11:30:08;21.92;73.72
67133;HTU21D;54052;53.542;49.408;2022-07-23T11:32:38;22.04;75.12
67133;HTU21D;54052;53.542;49.408;2022-07-23T11:35:22;22.10;75.63
67133;HTU21D;54052;53.542;49.408;2022-07-23T11:37:48;22.22;75.77
67133;HTU21D;54052;53.542;49.408;2022-07-23T11:40:16;22.37;76.19
67133;HTU21D;54052;53.542;49.408;2022-07-23T11:42:57;22.56;76.08
67133;HTU21D;54052;53.542;49.408;2022-07-23T11:45:29;22.73;76.08
67133;HTU21D;54052;53.542;49.408;2022-07-23T11:47:55;22.94;74.00
67133;HTU21D;54052;53.542;49.408;2022-07-23T11:50:23;23.16;74.47
67133;HTU21D;54052;53.542;49.408;2022-07-23T11:52:50;23.36;73.37
67133;HTU21D;54052;53.542;49.408;2022-07-23T11:55:16;23.51;70.03
67133;HTU21D;54052;53.542;49.408;2022-07-23T11:57:43;23.61;69.70
67133;HTU21D;54052;53.542;49.408;2022-07-23T12:00:15;23.66;70.45
67133;HTU21D;54052;53.542;49.408;2022-07-23T12:02:47;23.61;71.78
67133;HTU21D;54052;53.542;49.408;2022-07-23T12:05:16;23.64;73.80
67133;HTU21D;54052;53.542;49.408;2022-07-23T12:07:44;23.53;74.90
67133;HTU21D;54052;53.542;49.408;2022-07-23T12:10:12;23.39;73.32
67133;HTU21D;54052;53.542;49.408;2022-07-23T12:12:47;23.30;74.92
67133;HTU21D;54052;53.542;49.408;2022-07-23T12:15:18;23.36;75.92
67133;HTU21D;54052;53.542;49.408;2022-07-23T12:17:46;23.49;76.20
67133;HTU21D;54052;53.542;49.408;2022-07-23T12:20:14;23.68;78.32
67133;HTU21D;54052;53.542;49.408;2022-07-23T12:22:47;23.85;72.37
67133;HTU21D;54052;53.542;49.408;2022-07-23T12:25:15;24.02;72.16
67133;HTU21D;54052;53.542;49.408;2022-07-23T12:27:43;24.14;69.23
67133;HTU21D;54052;53.542;49.408;2022-07-23T12:30:23;24.28;68.92
67133;HTU21D;54052;53.542;49.408;2022-07-23T12:32:53;24.39;69.75
67133;HTU21D;54052;53.542;49.408;2022-07-23T12:35:20;24.50;68.44
67133;HTU21D;54052;53.542;49.408;2022-07-23T12:37:49;24.61;68.59
67133;HTU21D;54052;53.542;49.408;2022-07-23T12:42:48;24.78;62.79
67133;HTU21D;54052;53.542;49.408;2022-07-23T12:45:15;24.89;66.01
67133;HTU21D;54052;53.542;49.408;2022-07-23T12:50:48;25.04;62.79
67133;HTU21D;54052;53.542;49.408;2022-07-23T12:55:44;25.25;66.24
67133;HTU21D;54052;53.542;49.408;2022-07-23T12:58:16;25.33;62.37
67133;HTU21D;54052;53.542;49.408;2022-07-23T13:00:58;25.42;64.69
67133;HTU21D;54052;53.542;49.408;2022-07-23T13:03:27;25.47;60.59
67133;HTU21D;54052;53.542;49.408;2022-07-23T13:05:54;25.50;61.03
67133;HTU21D;54052;53.542;49.408;2022-07-23T13:08:22;25.54;60.24
67133;HTU21D;54052;53.542;49.408;2022-07-23T13:10:48;25.53;60.60
67133;HTU21D;54052;53.542;49.408;2022-07-23T13:13:19;25.52;58.75
67133;HTU21D;54052;53.542;49.408;2022-07-23T13:15:46;25.60;58.61
67133;HTU21D;54052;53.542;49.408;2022-07-23T13:18:13;25.69;58.58
67133;HTU21D;54052;53.542;49.408;2022-07-23T13:20:39;25.84;61.42
67133;HTU21D;54052;53.542;49.408;2022-07-23T13:23:06;25.93;61.21
67133;HTU21D;54052;53.542;49.408;2022-07-23T13:25:33;26.03;58.74
67133;HTU21D;54052;53.542;49.408;2022-07-23T13:27:59;26.10;57.41
67133;HTU21D;54052;53.542;49.408;2022-07-23T13:30:25;26.16;56.11
67133;HTU21D;54052;53.542;49.408;2022-07-23T13:32:52;26.18;57.86
67133;HTU21D;54052;53.542;49.408;2022-07-23T13:35:18;26.11;56.68
67133;HTU21D;54052;53.542;49.408;2022-07-23T13:37:44;26.08;57.53
67133;HTU21D;54052;53.542;49.408;2022-07-23T13:40:10;26.19;60.09
67133;HTU21D;54052;53.542;49.408;2022-07-23T13:42:37;26.20;55.00
67133;HTU21D;54052;53.542;49.408;2022-07-23T13:45:04;26.18;55.49
67133;HTU21D;54052;53.542;49.408;2022-07-23T13:47:31;26.20;56.79
67133;HTU21D;54052;53.542;49.408;2022-07-23T13:49:57;26.25;56.98
67133;HTU21D;54052;53.542;49.408;2022-07-23T13:52:23;26.28;55.98
67133;HTU21D;54052;53.542;49.408;2022-07-23T13:54:49;26.33;56.91
67133;HTU21D;54052;53.542;49.408;2022-07-23T13:57:16;26.37;55.33
67133;HTU21D;54052;53.542;49.408;2022-07-23T13:59:42;26.38;56.33
67133;HTU21D;54052;53.542;49.408;2022-07-23T14:02:08;26.40;56.35
67133;HTU21D;54052;53.542;49.408;2022-07-23T14:04:34;26.40;58.55
67133;HTU21D;54052;53.542;49.408;2022-07-23T14:07:01;26.38;57.32
67133;HTU21D;54052;53.542;49.408;2022-07-23T14:09:27;26.45;57.67
67133;HTU21D;54052;53.542;49.408;2022-07-23T14:11:53;26.55;59.97
67133;HTU21D;54052;53.542;49.408;2022-07-23T14:14:19;26.61;58.90
67133;HTU21D;54052;53.542;49.408;2022-07-23T14:16:45;26.66;59.54
67133;HTU21D;54052;53.542;49.408;2022-07-23T14:19:11;26.71;59.93
67133;HTU21D;54052;53.542;49.408;2022-07-23T14:21:37;26.70;57.61
67133;HTU21D;54052;53.542;49.408;2022-07-23T14:24:03;26.77;58.40
67133;HTU21D;54052;53.542;49.408;2022-07-23T14:26:29;26.79;57.58
67133;HTU21D;54052;53.542;49.408;2022-07-23T14:28:56;26.82;59.66
67133;HTU21D;54052;53.542;49.408;2022-07-23T14:31:22;26.81;56.73
67133;HTU21D;54052;53.542;49.408;2022-07-23T14:33:48;26.75;57.45
67133;HTU21D;54052;53.542;49.408;2022-07-23T14:36:15;26.70;57.13
67133;HTU21D;54052;53.542;49.408;2022-07-23T14:38:41;26.60;58.68
67133;HTU21D;54052;53.542;49.408;2022-07-23T14:41:07;26.42;57.11
67133;HTU21D;54052;53.542;49.408;2022-07-23T14:43:35;26.33;59.58
67133;HTU21D;54052;53.542;49.408;2022-07-23T14:46:01;26.27;59.41
67133;HTU21D;54052;53.542;49.408;2022-07-23T14:48:27;26.27;60.21
67133;HTU21D;54052;53.542;49.408;2022-07-23T14:50:53;26.35;60.19
67133;HTU21D;54052;53.542;49.408;2022-07-23T14:53:19;26.28;59.48
67133;HTU21D;54052;53.542;49.408;2022-07-23T14:55:45;26.22;58.03
67133;HTU21D;54052;53.542;49.408;2022-07-23T14:58:11;26.13;57.56
67133;HTU21D;54052;53.542;49.408;2022-07-23T15:00:37;26.04;57.80
67133;HTU21D;54052;53.542;49.408;2022-07-23T15:03:03;25.98;57.58
67133;HTU21D;54052;53.542;49.408;2022-07-23T15:05:29;25.96;57.01
67133;HTU21D;54052;53.542;49.408;2022-07-23T15:07:56;25.94;56.19
67133;HTU21D;54052;53.542;49.408;2022-07-23T15:10:22;25.92;57.16
67133;HTU21D;54052;53.542;49.408;2022-07-23T15:12:49;25.88;57.50
67133;HTU21D;54052;53.542;49.408;2022-07-23T15:15:15;25.82;57.89
67133;HTU21D;54052;53.542;49.408;2022-07-23T15:17:41;25.76;57.32
67133;HTU21D;54052;53.542;49.408;2022-07-23T15:20:08;25.71;57.96
67133;HTU21D;54052;53.542;49.408;2022-07-23T15:22:34;25.67;58.20
67133;HTU21D;54052;53.542;49.408;2022-07-23T15:25:00;25.62;59.69
67133;HTU21D;54052;53.542;49.408;2022-07-23T15:27:27;25.51;58.67
67133;HTU21D;54052;53.542;49.408;2022-07-23T15:29:53;25.42;59.56
67133;HTU21D;54052;53.542;49.408;2022-07-23T15:32:19;25.36;59.63
67133;HTU21D;54052;53.542;49.408;2022-07-23T15:34:45;25.34;60.50
67133;HTU21D;54052;53.542;49.408;2022-07-23T15:37:11;25.30;61.81